Time,TemperatureF,DewpointF,PressureIn,WindDirection,WindDirectionDegrees,WindSpeedMPH,WindSpeedGustMPH,Humidity,HourlyPrecipIn,Conditions,Clouds,dailyrainin,SoftwareType,DateUTC
2013-06-02 00:03:00,59.7,53.2,29.35,WSW,248,0.0,0.0,79,0.00,RA,OVC,0.00,WeatherDisplay:10.37,2013-06-01 14:03:00,
2013-06-02 00:08:00,59.9,53.0,29.35,NE,45,2.3,2.3,78,0.00,RA,OVC,0.00,WeatherDisplay:10.37,2013-06-01 14:08:00,
2013-06-02 00:13:00,59.9,53.4,29.35,NNE,22,2.4,2.4,79,0.00,CLR,OVC,0.00,WeatherDisplay:10.37,2013-06-01 14:13:00,
2013-06-02 00:18:00,59.7,52.8,29.35,WSW,248,0.0,0.0,78,0.00,CLR,OVC,0.00,WeatherDisplay:10.37,2013-06-01 14:18:00,
2013-06-02 00:23:00,59.7,52.8,29.35,SSE,158,3.3,3.3,78,0.00,CLR,OVC,0.00,WeatherDisplay:10.37,2013-06-01 14:23:00,
2013-06-02 00:28:00,59.5,53.0,29.35,South,180,2.3,2.3,79,0.00,CLR,OVC,0.00,WeatherDisplay:10.37,2013-06-01 14:28:00,
2013-06-02 00:33:00,59.4,52.8,29.35,SSE,158,3.8,3.8,79,0.00,CLR,OVC,0.00,WeatherDisplay:10.37,2013-06-01 14:33:00,
2013-06-02 00:38:00,59.4,52.8,29.35,SE,135,2.2,2.2,79,0.00,CLR,OVC,0.00,WeatherDisplay:10.37,2013-06-01 14:38:00,
2013-06-02 00:43:00,59.4,52.8,29.35,NE,45,0.0,0.0,79,0.00,CLR,OVC,0.00,WeatherDisplay:10.37,2013-06-01 14:43:00,
2013-06-02 00:48:00,59.4,53.2,29.32,SE,135,4.9,4.9,80,0.00,CLR,OVC,0.00,WeatherDisplay:10.37,2013-06-01 14:48:00,
2013-06-02 00:53:00,59.4,52.8,29.32,South,180,2.3,2.3,79,0.00,CLR,OVC,0.00,WeatherDisplay:10.37,2013-06-01 14:53:00,
2013-06-02 00:58:00,59.4,52.8,29.32,NNW,338,0.0,0.0,79,0.00,CLR,OVC,0.00,WeatherDisplay:10.37,2013-06-01 14:58:00,
2013-06-02 01:03:00,59.4,52.8,29.32,SW,225,1.2,0.0,79,0.00,CLR,OVC,0.00,WeatherDisplay:10.37,2013-06-01 15:03:00,
2013-06-02 01:08:00,59.4,52.8,29.32,ESE,112,2.3,2.3,79,0.00,CLR,OVC,0.00,WeatherDisplay:10.37,2013-06-01 15:08:00,
2013-06-02 01:13:00,59.4,52.8,29.32,SSE,158,0.0,0.0,79,0.00,CLR,OVC,0.00,WeatherDisplay:10.37,2013-06-01 15:13:00,
2013-06-02 01:18:00,59.2,52.7,29.32,NW,315,2.3,2.3,79,0.00,CLR,OVC,0.00,WeatherDisplay:10.37,2013-06-01 15:18:00,
2013-06-02 01:23:00,59.2,52.7,29.32,SSE,158,2.4,0.0,79,0.00,CLR,OVC,0.00,WeatherDisplay:10.37,2013-06-01 15:23:00,
2013-06-02 01:28:00,59.4,52.8,29.32,NW,315,0.0,0.0,79,0.00,CLR,OVC,0.00,WeatherDisplay:10.37,2013-06-01 15:28:00,
2013-06-02 01:33:00,59.2,52.7,29.32,SW,225,2.3,2.3,79,0.00,CLR,OVC,0.00,WeatherDisplay:10.37,2013-06-01 15:33:00,
2013-06-02 01:38:00,59.2,52.7,29.32,SE,135,2.3,2.3,79,0.00,CLR,OVC,0.00,WeatherDisplay:10.37,2013-06-01 15:38:00,
2013-06-02 01:43:00,59.0,52.5,29.32,SE,135,0.0,0.0,79,0.00,CLR,OVC,0.00,WeatherDisplay:10.37,2013-06-01 15:43:00,
2013-06-02 01:48:00,58.8,52.7,29.32,South,180,0.0,0.0,80,0.00,CLR,OVC,0.00,WeatherDisplay:10.37,2013-06-01 15:48:00,
2013-06-02 01:53:00,58.8,52.7,29.32,ENE,68,2.3,2.3,80,0.00,CLR,OVC,0.00,WeatherDisplay:10.37,2013-06-01 15:53:00,
2013-06-02 01:58:00,58.8,52.7,29.32,SSW,202,0.0,0.0,80,0.00,CLR,OVC,0.00,WeatherDisplay:10.37,2013-06-01 15:58:00,
2013-06-02 02:03:00,58.6,52.5,29.32,ESE,112,0.0,0.0,80,0.00,CLR,OVC,0.00,WeatherDisplay:10.37,2013-06-01 16:03:00,
2013-06-02 02:08:00,58.6,52.8,29.32,NNE,22,1.2,1.2,81,0.00,CLR,OVC,0.00,WeatherDisplay:10.37,2013-06-01 16:08:00,
2013-06-02 02:13:00,58.5,52.6,29.32,WSW,248,0.0,0.0,81,0.00,CLR,OVC,0.00,WeatherDisplay:10.37,2013-06-01 16:13:00,
2013-06-02 02:18:00,58.5,52.6,29.29,NE,45,2.3,2.3,81,0.00,CLR,OVC,0.00,WeatherDisplay:10.37,2013-06-01 16:18:00,
2013-06-02 02:23:00,58.5,53.0,29.29,SSE,158,1.2,1.2,82,0.00,CLR,OVC,0.00,WeatherDisplay:10.37,2013-06-01 16:23:00,
2013-06-02 02:28:00,58.3,52.8,29.29,SSW,202,1.4,0.0,82,0.00,CLR,OVC,0.00,WeatherDisplay:10.37,2013-06-01 16:28:00,
2013-06-02 02:33:00,58.3,52.8,29.29,ENE,68,0.0,0.0,82,0.00,CLR,OVC,0.00,WeatherDisplay:10.37,2013-06-01 16:33:00,
2013-06-02 02:38:00,58.5,53.0,29.29,SE,135,0.0,0.0,82,0.00,CLR,OVC,0.00,WeatherDisplay:10.37,2013-06-01 16:38:00,
2013-06-02 02:43:00,58.5,53.0,29.29,SSE,158,0.0,0.0,82,0.00,CLR,OVC,0.00,WeatherDisplay:10.37,2013-06-01 16:43:00,
2013-06-02 02:48:00,58.5,53.0,29.26,NNW,338,2.3,2.3,82,0.00,CLR,OVC,0.00,WeatherDisplay:10.37,2013-06-01 16:48:00,
2013-06-02 02:53:00,58.3,52.8,29.26,South,180,0.0,0.0,82,0.00,CLR,OVC,0.00,WeatherDisplay:10.37,2013-06-01 16:53:00,
2013-06-02 02:58:00,58.3,52.8,29.26,SSE,158,0.0,0.0,82,0.00,CLR,OVC,0.00,WeatherDisplay:10.37,2013-06-01 16:58:00,
2013-06-02 03:03:00,58.3,52.8,29.26,ENE,68,0.0,0.0,82,0.00,CLR,OVC,0.00,WeatherDisplay:10.37,2013-06-01 17:03:00,
2013-06-02 03:08:00,58.1,53.0,29.26,South,180,0.0,0.0,83,0.00,CLR,OVC,0.00,WeatherDisplay:10.37,2013-06-01 17:08:00,
2013-06-02 03:13:00,58.1,53.0,29.26,NE,45,0.0,0.0,83,0.00,CLR,OVC,0.00,WeatherDisplay:10.37,2013-06-01 17:13:00,
2013-06-02 03:18:00,58.1,53.0,29.26,West,270,2.4,0.0,83,0.00,CLR,OVC,0.00,WeatherDisplay:10.37,2013-06-01 17:18:00,
2013-06-02 03:23:00,57.9,52.8,29.26,WNW,292,1.2,1.2,83,0.00,CLR,OVC,0.00,WeatherDisplay:10.37,2013-06-01 17:23:00,
2013-06-02 03:28:00,57.9,52.8,29.26,WSW,248,0.0,0.0,83,0.00,CLR,OVC,0.00,WeatherDisplay:10.37,2013-06-01 17:28:00,
2013-06-02 03:33:00,57.9,52.8,29.26,West,270,0.0,0.0,83,0.00,CLR,OVC,0.00,WeatherDisplay:10.37,2013-06-01 17:33:00,
2013-06-02 03:38:00,57.9,52.8,29.26,SSE,158,0.0,0.0,83,0.00,CLR,OVC,0.00,WeatherDisplay:10.37,2013-06-01 17:38:00,
2013-06-02 03:43:00,57.9,53.1,29.26,NNE,22,0.0,0.0,84,0.00,CLR,OVC,0.00,WeatherDisplay:10.37,2013-06-01 17:43:00,
2013-06-02 03:48:00,57.7,52.9,29.24,NW,315,0.0,0.0,84,0.00,CLR,OVC,0.00,WeatherDisplay:10.37,2013-06-01 17:48:00,
2013-06-02 03:53:00,57.6,52.8,29.24,WNW,292,1.2,0.0,84,0.00,CLR,OVC,0.00,WeatherDisplay:10.37,2013-06-01 17:53:00,
2013-06-02 03:58:00,57.6,52.8,29.24,SE,135,2.3,0.0,84,0.00,CLR,OVC,0.00,WeatherDisplay:10.37,2013-06-01 17:58:00,
2013-06-02 04:03:00,57.6,53.1,29.24,North,0,0.0,0.0,85,0.00,CLR,OVC,0.00,WeatherDisplay:10.37,2013-06-01 18:03:00,
2013-06-02 04:08:00,57.6,53.1,29.24,NE,45,0.0,0.0,85,0.00,CLR,OVC,0.00,WeatherDisplay:10.37,2013-06-01 18:08:00,
2013-06-02 04:13:00,57.6,53.1,29.24,South,180,0.0,0.0,85,0.00,CLR,OVC,0.00,WeatherDisplay:10.37,2013-06-01 18:13:00,
2013-06-02 04:18:00,57.6,53.1,29.24,SE,135,2.3,2.3,85,0.00,CLR,OVC,0.00,WeatherDisplay:10.37,2013-06-01 18:18:00,
2013-06-02 04:23:00,57.6,53.1,29.24,South,180,0.0,0.0,85,0.00,CLR,OVC,0.00,WeatherDisplay:10.37,2013-06-01 18:23:00,
2013-06-02 04:28:00,57.6,53.1,29.24,North,0,0.0,0.0,85,0.00,CLR,OVC,0.00,WeatherDisplay:10.37,2013-06-01 18:28:00,
2013-06-02 04:33:00,57.6,53.1,29.24,SE,135,0.0,0.0,85,0.00,CLR,OVC,0.00,WeatherDisplay:10.37,2013-06-01 18:33:00,
2013-06-02 04:38:00,57.6,53.1,29.24,SSE,158,0.0,0.0,85,0.00,CLR,OVC,0.00,WeatherDisplay:10.37,2013-06-01 18:38:00,
2013-06-02 04:43:00,57.6,53.1,29.24,NNW,338,0.0,0.0,85,0.00,CLR,OVC,0.00,WeatherDisplay:10.37,2013-06-01 18:43:00,
2013-06-02 04:48:00,57.6,53.1,29.20,SW,225,0.0,0.0,85,0.00,CLR,OVC,0.00,WeatherDisplay:10.37,2013-06-01 18:48:00,
2013-06-02 04:53:00,57.6,53.4,29.20,NW,315,0.0,0.0,86,0.00,CLR,OVC,0.00,WeatherDisplay:10.37,2013-06-01 18:53:00,
2013-06-02 04:58:00,57.6,53.4,29.20,WSW,248,0.9,0.0,86,0.00,CLR,OVC,0.00,WeatherDisplay:10.37,2013-06-01 18:58:00,
2013-06-02 05:03:00,57.6,53.4,29.24,WSW,248,0.0,0.0,86,0.00,CLR,OVC,0.00,WeatherDisplay:10.37,2013-06-01 19:03:00,
2013-06-02 05:08:00,57.6,53.4,29.24,SSW,202,0.0,0.0,86,0.00,CLR,OVC,0.00,WeatherDisplay:10.37,2013-06-01 19:08:00,
2013-06-02 05:13:00,57.6,53.4,29.24,SW,225,0.0,0.0,86,0.00,CLR,OVC,0.00,WeatherDisplay:10.37,2013-06-01 19:13:00,
2013-06-02 05:18:00,57.7,53.6,29.24,NNE,22,0.0,0.0,86,0.00,CLR,OVC,0.00,WeatherDisplay:10.37,2013-06-01 19:18:00,
2013-06-02 05:23:00,57.7,53.9,29.24,WNW,292,1.2,0.0,87,0.00,CLR,OVC,0.00,WeatherDisplay:10.37,2013-06-01 19:23:00,
2013-06-02 05:28:00,57.7,53.9,29.24,ESE,112,4.6,4.6,87,0.00,CLR,OVC,0.00,WeatherDisplay:10.37,2013-06-01 19:28:00,
2013-06-02 05:33:00,57.6,53.7,29.24,SSE,158,2.2,0.0,87,0.00,CLR,OVC,0.00,WeatherDisplay:10.37,2013-06-01 19:33:00,
2013-06-02 05:38:00,57.6,54.0,29.24,NW,315,0.0,0.0,88,0.00,CLR,OVC,0.00,WeatherDisplay:10.37,2013-06-01 19:38:00,
2013-06-02 05:43:00,57.6,54.0,29.24,SE,135,0.0,0.0,88,0.00,CLR,OVC,0.00,WeatherDisplay:10.37,2013-06-01 19:43:00,
2013-06-02 05:48:00,57.7,54.2,29.24,NW,315,0.0,0.0,88,0.00,CLR,OVC,0.00,WeatherDisplay:10.37,2013-06-01 19:48:00,
2013-06-02 05:53:00,57.6,54.3,29.24,ESE,112,0.0,0.0,89,0.00,CLR,OVC,0.00,WeatherDisplay:10.37,2013-06-01 19:53:00,
2013-06-02 05:58:00,57.4,54.2,29.24,NNE,22,0.0,0.0,89,0.05,RA,OVC,0.05,WeatherDisplay:10.37,2013-06-01 19:58:00,
2013-06-02 06:03:00,57.4,54.2,29.20,WNW,292,1.2,0.0,89,0.05,RA,OVC,0.05,WeatherDisplay:10.37,2013-06-01 20:03:00,
2013-06-02 06:08:00,57.4,54.2,29.20,ESE,112,2.3,0.0,89,0.05,CLR,OVC,0.05,WeatherDisplay:10.37,2013-06-01 20:08:00,
2013-06-02 06:13:00,57.2,54.0,29.20,ESE,112,2.3,2.3,89,0.05,CLR,OVC,0.05,WeatherDisplay:10.37,2013-06-01 20:13:00,
2013-06-02 06:18:00,57.4,54.2,29.20,NE,45,0.0,0.0,89,0.05,CLR,OVC,0.05,WeatherDisplay:10.37,2013-06-01 20:18:00,
2013-06-02 06:23:00,57.4,54.5,29.20,SSW,202,2.3,2.3,90,0.05,CLR,OVC,0.05,WeatherDisplay:10.37,2013-06-01 20:23:00,
2013-06-02 06:28:00,57.4,54.5,29.20,South,180,2.3,2.3,90,0.05,CLR,OVC,0.05,WeatherDisplay:10.37,2013-06-01 20:28:00,
2013-06-02 06:33:00,57.6,54.6,29.18,SW,225,2.3,2.3,90,0.05,CLR,OVC,0.05,WeatherDisplay:10.37,2013-06-01 20:33:00,
2013-06-02 06:38:00,57.6,54.6,29.18,SE,135,1.2,0.0,90,0.05,CLR,OVC,0.05,WeatherDisplay:10.37,2013-06-01 20:38:00,
2013-06-02 06:43:00,57.6,54.6,29.18,ENE,68,0.0,0.0,90,0.05,CLR,OVC,0.05,WeatherDisplay:10.37,2013-06-01 20:43:00,
2013-06-02 06:48:00,57.6,55.0,29.20,NW,315,1.2,0.0,91,0.05,CLR,OVC,0.05,WeatherDisplay:10.37,2013-06-01 20:48:00,
2013-06-02 06:54:00,57.6,55.0,29.20,WNW,292,0.0,0.0,91,0.05,CLR,OVC,0.05,WeatherDisplay:10.37,2013-06-01 20:54:00,
2013-06-02 06:59:00,57.7,55.1,29.20,NW,315,2.3,2.3,91,0.00,CLR,OVC,0.05,WeatherDisplay:10.37,2013-06-01 20:59:00,
2013-06-02 07:04:00,57.7,55.1,29.18,WSW,248,2.3,0.0,91,0.00,CLR,OVC,0.05,WeatherDisplay:10.37,2013-06-01 21:04:00,
2013-06-02 07:09:00,57.7,55.1,29.18,South,180,2.4,2.4,91,0.00,CLR,OVC,0.05,WeatherDisplay:10.37,2013-06-01 21:09:00,
2013-06-02 07:14:00,57.7,55.1,29.18,WSW,248,1.2,1.2,91,0.00,CLR,OVC,0.05,WeatherDisplay:10.37,2013-06-01 21:14:00,
2013-06-02 07:19:00,57.7,55.1,29.18,SW,225,0.0,0.0,91,0.04,RA,OVC,0.09,WeatherDisplay:10.37,2013-06-01 21:19:00,
2013-06-02 07:24:00,57.9,55.3,29.18,SSE,158,2.3,0.0,91,0.04,RA,OVC,0.09,WeatherDisplay:10.37,2013-06-01 21:24:00,
2013-06-02 07:29:00,57.7,55.1,29.18,SSW,202,0.0,0.0,91,0.04,CLR,OVC,0.09,WeatherDisplay:10.37,2013-06-01 21:29:00,
2013-06-02 07:34:00,57.9,55.3,29.20,SSW,202,0.0,0.0,91,0.04,CLR,OVC,0.09,WeatherDisplay:10.37,2013-06-01 21:34:00,
2013-06-02 07:39:00,57.9,55.3,29.20,South,180,0.0,0.0,91,0.04,CLR,OVC,0.09,WeatherDisplay:10.37,2013-06-01 21:39:00,
2013-06-02 07:44:00,57.9,55.3,29.20,South,180,0.0,0.0,91,0.04,CLR,OVC,0.09,WeatherDisplay:10.37,2013-06-01 21:44:00,
2013-06-02 07:49:00,57.9,55.3,29.20,SSE,158,2.3,2.3,91,0.04,CLR,OVC,0.09,WeatherDisplay:10.37,2013-06-01 21:49:00,
2013-06-02 07:54:00,57.9,55.3,29.20,SSE,158,0.0,0.0,91,0.04,CLR,OVC,0.09,WeatherDisplay:10.37,2013-06-01 21:54:00,
2013-06-02 07:59:00,57.9,55.3,29.20,ESE,112,0.0,0.0,91,0.04,CLR,OVC,0.09,WeatherDisplay:10.37,2013-06-01 21:59:00,
2013-06-02 08:04:00,57.9,55.6,29.20,NE,45,0.0,0.0,92,0.08,RA,OVC,0.13,WeatherDisplay:10.37,2013-06-01 22:04:00,
2013-06-02 08:09:00,57.7,55.4,29.20,East,90,0.0,0.0,92,0.08,RA,OVC,0.13,WeatherDisplay:10.37,2013-06-01 22:09:00,
2013-06-02 08:14:00,57.7,55.4,29.20,NW,315,3.5,3.5,92,0.08,,OVC,0.13,WeatherDisplay:10.37,2013-06-01 22:14:00,
2013-06-02 08:19:00,57.7,55.4,29.18,North,0,4.6,4.6,92,0.04,CLR,OVC,0.13,WeatherDisplay:10.37,2013-06-01 22:19:00,
2013-06-02 08:24:00,57.6,55.3,29.18,NE,45,2.3,2.3,92,0.04,CLR,OVC,0.13,WeatherDisplay:10.37,2013-06-01 22:24:00,
2013-06-02 08:29:00,57.7,55.4,29.18,SW,225,2.3,2.3,92,0.04,CLR,OVC,0.13,WeatherDisplay:10.37,2013-06-01 22:29:00,
2013-06-02 08:34:00,57.7,55.4,29.18,West,270,2.3,2.3,92,0.04,CLR,OVC,0.13,WeatherDisplay:10.37,2013-06-01 22:34:00,
2013-06-02 08:39:00,57.9,55.6,29.18,SSW,202,1.4,1.4,92,0.04,CLR,OVC,0.13,WeatherDisplay:10.37,2013-06-01 22:39:00,
2013-06-02 08:44:00,57.9,55.6,29.18,SW,225,4.6,4.7,92,0.04,CLR,OVC,0.13,WeatherDisplay:10.37,2013-06-01 22:44:00,
2013-06-02 08:49:00,57.9,55.6,29.20,WNW,292,3.5,3.5,92,0.04,CLR,OVC,0.13,WeatherDisplay:10.37,2013-06-01 22:49:00,
2013-06-02 08:54:00,57.9,55.6,29.20,NNW,338,3.5,3.5,92,0.04,CLR,OVC,0.13,WeatherDisplay:10.37,2013-06-01 22:54:00,
2013-06-02 08:59:00,57.9,55.6,29.20,SW,225,1.2,1.6,92,0.04,CLR,OVC,0.13,WeatherDisplay:10.37,2013-06-01 22:59:00,
2013-06-02 09:04:00,57.9,55.6,29.20,WNW,292,1.2,1.2,92,0.00,CLR,OVC,0.13,WeatherDisplay:10.37,2013-06-01 23:04:00,
2013-06-02 09:09:00,58.1,55.8,29.20,SSE,158,1.4,1.4,92,0.00,CLR,OVC,0.13,WeatherDisplay:10.37,2013-06-01 23:09:00,
2013-06-02 09:14:00,58.1,55.8,29.20,WSW,248,1.6,0.0,92,0.00,CLR,OVC,0.13,WeatherDisplay:10.37,2013-06-01 23:14:00,
2013-06-02 09:19:00,58.3,56.0,29.20,NW,315,2.6,0.0,92,0.00,CLR,OVC,0.13,WeatherDisplay:10.37,2013-06-01 23:19:00,
2013-06-02 09:24:00,58.3,56.0,29.20,NW,315,4.9,4.9,92,0.00,CLR,OVC,0.13,WeatherDisplay:10.37,2013-06-01 23:24:00,
2013-06-02 09:29:00,58.3,56.0,29.20,WNW,292,5.8,5.8,92,0.00,CLR,OVC,0.13,WeatherDisplay:10.37,2013-06-01 23:29:00,
2013-06-02 09:34:00,58.5,56.1,29.20,North,0,4.6,4.6,92,0.00,CLR,OVC,0.13,WeatherDisplay:10.37,2013-06-01 23:34:00,
2013-06-02 09:39:00,58.6,56.3,29.20,WNW,292,4.6,4.6,92,0.00,CLR,OVC,0.13,WeatherDisplay:10.37,2013-06-01 23:39:00,
2013-06-02 09:44:00,58.6,56.3,29.18,WSW,248,2.3,2.3,92,0.00,CLR,OVC,0.13,WeatherDisplay:10.37,2013-06-01 23:44:00,
2013-06-02 09:49:00,59.0,56.7,29.18,West,270,2.3,2.3,92,0.00,CLR,OVC,0.13,WeatherDisplay:10.37,2013-06-01 23:49:00,
2013-06-02 09:54:00,59.2,56.9,29.18,SW,225,3.5,3.5,92,0.00,CLR,OVC,0.13,WeatherDisplay:10.37,2013-06-01 23:54:00,
2013-06-02 09:59:00,59.5,56.9,29.20,WSW,248,3.5,3.5,91,0.00,CLR,OVC,0.13,WeatherDisplay:10.37,2013-06-01 23:59:00,
2013-06-02 10:04:00,59.5,56.9,29.20,NE,45,2.3,2.3,91,0.00,CLR,OVC,0.13,WeatherDisplay:10.37,2013-06-02 00:04:00,
2013-06-02 10:09:00,59.4,56.7,29.20,SSW,202,3.5,3.5,91,0.00,CLR,OVC,0.13,WeatherDisplay:10.37,2013-06-02 00:09:00,
2013-06-02 10:14:00,59.4,56.7,29.20,South,180,2.3,2.3,91,0.00,CLR,OVC,0.13,WeatherDisplay:10.37,2013-06-02 00:14:00,
2013-06-02 10:19:00,59.4,56.7,29.20,NNE,22,2.3,2.3,91,0.00,CLR,OVC,0.13,WeatherDisplay:10.37,2013-06-02 00:19:00,
2013-06-02 10:24:00,59.4,56.7,29.20,WNW,292,2.3,2.3,91,0.00,CLR,OVC,0.13,WeatherDisplay:10.37,2013-06-02 00:24:00,
2013-06-02 10:29:00,59.4,56.7,29.20,ENE,68,1.2,1.2,91,0.00,CLR,OVC,0.13,WeatherDisplay:10.37,2013-06-02 00:29:00,
2013-06-02 10:34:00,59.4,56.7,29.20,East,90,1.2,1.2,91,0.00,CLR,OVC,0.13,WeatherDisplay:10.37,2013-06-02 00:34:00,
2013-06-02 10:39:00,59.2,56.6,29.20,West,270,3.5,3.5,91,0.04,RA,OVC,0.17,WeatherDisplay:10.37,2013-06-02 00:39:00,
2013-06-02 10:44:00,59.4,56.7,29.20,NNW,338,3.5,3.5,91,0.04,RA,OVC,0.17,WeatherDisplay:10.37,2013-06-02 00:44:00,
2013-06-02 10:49:00,59.4,56.7,29.20,ENE,68,2.3,2.3,91,0.04,,OVC,0.17,WeatherDisplay:10.37,2013-06-02 00:49:00,
2013-06-02 10:54:00,59.4,56.7,29.20,NNE,22,1.2,0.0,91,0.04,CLR,OVC,0.17,WeatherDisplay:10.37,2013-06-02 00:54:00,
2013-06-02 11:02:00,59.2,56.6,29.20,West,270,2.3,2.3,91,0.04,CLR,OVC,0.17,WeatherDisplay:10.37,2013-06-02 01:02:00,
2013-06-02 11:07:00,59.2,56.6,29.20,NNE,22,2.3,2.3,91,0.04,CLR,OVC,0.17,WeatherDisplay:10.37,2013-06-02 01:07:00,
2013-06-02 11:12:00,59.2,56.6,29.20,North,0,2.6,2.6,91,0.08,RA,OVC,0.21,WeatherDisplay:10.37,2013-06-02 01:12:00,
2013-06-02 11:17:00,59.0,56.1,29.20,WNW,292,5.8,5.8,90,0.08,RA,OVC,0.21,WeatherDisplay:10.37,2013-06-02 01:17:00,
2013-06-02 11:22:00,59.0,56.1,29.20,SE,135,2.4,0.0,90,0.12,RA,OVC,0.25,WeatherDisplay:10.37,2013-06-02 01:22:00,
2013-06-02 11:27:00,58.8,56.2,29.20,West,270,2.3,2.3,91,0.16,RA,OVC,0.29,WeatherDisplay:10.37,2013-06-02 01:27:00,
2013-06-02 11:32:00,58.8,56.2,29.20,SSW,202,1.6,0.0,91,0.16,RA,OVC,0.29,WeatherDisplay:10.37,2013-06-02 01:32:00,
2013-06-02 11:37:00,58.8,56.2,29.20,NW,315,3.5,3.5,91,0.20,RA,OVC,0.33,WeatherDisplay:10.37,2013-06-02 01:37:00,
2013-06-02 11:42:00,58.6,56.0,29.20,WNW,292,3.5,3.5,91,0.21,RA,OVC,0.38,WeatherDisplay:10.37,2013-06-02 01:42:00,
2013-06-02 11:47:00,58.6,56.0,29.20,WSW,248,2.3,2.3,91,0.21,RA,OVC,0.38,WeatherDisplay:10.37,2013-06-02 01:47:00,
2013-06-02 11:55:00,58.5,55.8,29.20,WNW,292,3.5,3.5,91,0.25,RA,OVC,0.43,WeatherDisplay:10.37,2013-06-02 01:55:00,
2013-06-02 12:00:00,58.5,55.8,29.20,NW,315,2.3,2.3,91,0.29,RA,OVC,0.46,WeatherDisplay:10.37,2013-06-02 02:00:00,
2013-06-02 12:05:00,58.5,55.8,29.20,NNW,338,1.6,1.6,91,0.29,RA,OVC,0.46,WeatherDisplay:10.37,2013-06-02 02:05:00,
2013-06-02 12:10:00,58.1,55.5,29.20,WNW,292,3.5,3.5,91,0.33,RA,OVC,0.50,WeatherDisplay:10.37,2013-06-02 02:10:00,
2013-06-02 12:15:00,58.1,55.2,29.20,ENE,68,12.7,12.7,90,0.33,RA,OVC,0.50,WeatherDisplay:10.37,2013-06-02 02:15:00,
2013-06-02 12:20:00,57.9,55.0,29.20,NNE,22,2.9,2.9,90,0.33,RA,OVC,0.54,WeatherDisplay:10.37,2013-06-02 02:20:00,
2013-06-02 12:25:00,57.6,54.3,29.20,SSE,158,4.6,4.6,89,0.33,RA,OVC,0.54,WeatherDisplay:10.37,2013-06-02 02:25:00,
2013-06-02 12:30:00,57.6,54.3,29.24,ESE,112,2.4,2.4,89,0.29,,OVC,0.54,WeatherDisplay:10.37,2013-06-02 02:30:00,
2013-06-02 12:35:00,57.4,54.2,29.24,SSW,202,3.5,3.5,89,0.25,CLR,OVC,0.54,WeatherDisplay:10.37,2013-06-02 02:35:00,
2013-06-02 12:40:00,57.0,53.8,29.24,SE,135,6.9,6.9,89,0.26,RA,OVC,0.59,WeatherDisplay:10.37,2013-06-02 02:40:00,
2013-06-02 12:45:00,56.7,52.8,29.26,NNW,338,4.6,4.6,87,0.26,RA,OVC,0.59,WeatherDisplay:10.37,2013-06-02 02:45:00,
2013-06-02 12:50:00,56.5,52.7,29.26,NNW,338,6.9,6.9,87,0.21,,OVC,0.59,WeatherDisplay:10.37,2013-06-02 02:50:00,
2013-06-02 12:55:00,56.3,52.5,29.26,WSW,248,3.5,3.5,87,0.17,CLR,OVC,0.59,WeatherDisplay:10.37,2013-06-02 02:55:00,
2013-06-02 13:00:00,56.3,52.2,29.26,ENE,68,2.3,0.0,86,0.13,CLR,OVC,0.59,WeatherDisplay:10.37,2013-06-02 03:00:00,
2013-06-02 13:05:00,56.1,52.0,29.26,WNW,292,9.7,9.7,86,0.13,CLR,OVC,0.63,WeatherDisplay:10.37,2013-06-02 03:05:00,
2013-06-02 13:11:00,55.9,51.8,29.26,SSW,202,0.0,0.9,86,0.12,RA,OVC,0.63,WeatherDisplay:10.37,2013-06-02 03:11:00,
2013-06-02 13:15:00,55.9,52.1,29.26,ENE,68,2.3,0.0,87,0.12,RA,OVC,0.63,WeatherDisplay:10.37,2013-06-02 03:15:00,
2013-06-02 13:21:00,55.9,52.1,29.26,SW,225,5.8,5.8,87,0.08,CLR,OVC,0.63,WeatherDisplay:10.37,2013-06-02 03:21:00,
2013-06-02 13:26:00,55.9,51.8,29.26,East,90,2.3,2.3,86,0.13,RA,OVC,0.68,WeatherDisplay:10.37,2013-06-02 03:26:00,
2013-06-02 13:31:00,55.9,51.8,29.26,NNW,338,3.1,3.1,86,0.13,RA,OVC,0.68,WeatherDisplay:10.37,2013-06-02 03:31:00,
2013-06-02 13:36:00,55.6,51.1,29.26,SW,225,2.4,3.1,85,0.13,CLR,OVC,0.68,WeatherDisplay:10.37,2013-06-02 03:36:00,
2013-06-02 13:41:00,55.4,51.0,29.26,NNE,22,5.8,5.8,85,0.08,CLR,OVC,0.68,WeatherDisplay:10.37,2013-06-02 03:41:00,
2013-06-02 13:46:00,55.4,51.3,29.24,NNE,22,3.5,3.5,86,0.08,CLR,OVC,0.68,WeatherDisplay:10.37,2013-06-02 03:46:00,
2013-06-02 13:51:00,55.4,51.3,29.24,NNE,22,2.3,0.0,86,0.08,CLR,OVC,0.68,WeatherDisplay:10.37,2013-06-02 03:51:00,
2013-06-02 13:56:00,55.2,51.1,29.24,NW,315,2.3,2.3,86,0.12,RA,OVC,0.72,WeatherDisplay:10.37,2013-06-02 03:56:00,
2013-06-02 14:01:00,55.0,50.9,29.26,SE,135,1.6,1.6,86,0.12,RA,OVC,0.72,WeatherDisplay:10.37,2013-06-02 04:01:00,
2013-06-02 14:02:00,55.0,50.9,29.26,ESE,112,2.3,2.3,86,0.12,RA,OVC,0.72,WeatherDisplay:10.37,2013-06-02 04:02:00,
2013-06-02 14:06:00,55.0,50.9,29.26,North,0,3.5,3.5,86,0.09,CLR,OVC,0.72,WeatherDisplay:10.37,2013-06-02 04:06:00,
2013-06-02 14:11:00,55.0,51.2,29.26,WNW,292,2.3,0.0,87,0.09,CLR,OVC,0.72,WeatherDisplay:10.37,2013-06-02 04:11:00,
2013-06-02 14:16:00,55.2,51.4,29.26,WNW,292,2.9,2.9,87,0.09,CLR,OVC,0.72,WeatherDisplay:10.37,2013-06-02 04:16:00,
2013-06-02 14:21:00,55.2,51.4,29.26,West,270,2.3,2.3,87,0.09,CLR,OVC,0.72,WeatherDisplay:10.37,2013-06-02 04:21:00,
2013-06-02 14:27:00,55.4,51.6,29.26,SSW,202,2.3,2.3,87,0.04,CLR,OVC,0.72,WeatherDisplay:10.37,2013-06-02 04:27:00,
2013-06-02 14:32:00,55.0,50.9,29.26,WNW,292,0.0,0.0,86,0.04,CLR,OVC,0.72,WeatherDisplay:10.37,2013-06-02 04:32:00,
2013-06-02 14:36:00,55.2,51.4,29.26,WSW,248,2.3,2.3,87,0.04,CLR,OVC,0.72,WeatherDisplay:10.37,2013-06-02 04:36:00,
2013-06-02 14:41:00,55.4,51.6,29.26,NW,315,3.5,3.5,87,0.04,CLR,OVC,0.72,WeatherDisplay:10.37,2013-06-02 04:41:00,
2013-06-02 14:46:00,55.6,51.8,29.29,NNW,338,2.9,2.9,87,0.04,CLR,OVC,0.72,WeatherDisplay:10.37,2013-06-02 04:46:00,
2013-06-02 14:51:00,55.8,51.9,29.29,WNW,292,3.5,3.5,87,0.04,CLR,OVC,0.72,WeatherDisplay:10.37,2013-06-02 04:51:00,
2013-06-02 14:56:00,55.8,51.9,29.29,South,180,5.8,5.8,87,0.00,CLR,OVC,0.72,WeatherDisplay:10.37,2013-06-02 04:56:00,
2013-06-02 15:01:00,55.6,51.5,29.29,North,0,5.8,5.8,86,0.00,CLR,OVC,0.72,WeatherDisplay:10.37,2013-06-02 05:01:00,
2013-06-02 15:06:00,55.6,51.5,29.29,WSW,248,1.2,0.0,86,0.00,CLR,OVC,0.72,WeatherDisplay:10.37,2013-06-02 05:06:00,
2013-06-02 15:11:00,55.8,51.6,29.29,WSW,248,2.3,0.0,86,0.00,CLR,OVC,0.72,WeatherDisplay:10.37,2013-06-02 05:11:00,
2013-06-02 15:16:00,55.9,52.1,29.32,WNW,292,2.3,0.0,87,0.00,CLR,OVC,0.72,WeatherDisplay:10.37,2013-06-02 05:16:00,
2013-06-02 15:21:00,56.1,52.3,29.32,SSW,202,1.2,0.0,87,0.00,CLR,OVC,0.72,WeatherDisplay:10.37,2013-06-02 05:21:00,
2013-06-02 15:26:00,56.3,52.5,29.32,WNW,292,2.3,0.0,87,0.00,CLR,OVC,0.72,WeatherDisplay:10.37,2013-06-02 05:26:00,
2013-06-02 15:31:00,56.3,52.2,29.29,West,270,3.5,3.5,86,0.00,CLR,OVC,0.72,WeatherDisplay:10.37,2013-06-02 05:31:00,
2013-06-02 15:36:00,56.3,51.8,29.29,West,270,1.2,0.0,85,0.00,CLR,OVC,0.72,WeatherDisplay:10.37,2013-06-02 05:36:00,
2013-06-02 15:41:00,56.3,51.8,29.29,SW,225,2.3,0.0,85,0.00,CLR,OVC,0.72,WeatherDisplay:10.37,2013-06-02 05:41:00,
2013-06-02 15:46:00,56.5,52.0,29.32,SSW,202,2.3,2.3,85,0.00,CLR,OVC,0.72,WeatherDisplay:10.37,2013-06-02 05:46:00,
2013-06-02 15:51:00,56.5,52.0,29.32,SSE,158,1.2,0.0,85,0.00,CLR,OVC,0.72,WeatherDisplay:10.37,2013-06-02 05:51:00,
2013-06-02 15:56:00,56.5,52.0,29.32,South,180,2.6,2.6,85,0.00,CLR,OVC,0.72,WeatherDisplay:10.37,2013-06-02 05:56:00,
2013-06-02 16:01:00,56.1,51.0,29.32,SSE,158,4.6,4.6,83,0.00,CLR,OVC,0.72,WeatherDisplay:10.37,2013-06-02 06:01:00,
2013-06-02 16:06:00,55.8,50.3,29.32,SW,225,1.4,0.0,82,0.00,CLR,OVC,0.72,WeatherDisplay:10.37,2013-06-02 06:06:00,
2013-06-02 16:11:00,55.8,50.7,29.32,South,180,2.3,0.0,83,0.00,CLR,OVC,0.72,WeatherDisplay:10.37,2013-06-02 06:11:00,
2013-06-02 16:16:00,55.6,50.2,29.35,South,180,2.3,2.3,82,0.00,CLR,OVC,0.72,WeatherDisplay:10.37,2013-06-02 06:16:00,
2013-06-02 16:21:00,55.4,50.0,29.35,South,180,2.3,0.0,82,0.00,CLR,OVC,0.72,WeatherDisplay:10.37,2013-06-02 06:21:00,
2013-06-02 16:26:00,55.4,50.0,29.35,SSW,202,1.2,0.0,82,0.00,CLR,OVC,0.72,WeatherDisplay:10.37,2013-06-02 06:26:00,
2013-06-02 16:31:00,55.2,49.8,29.35,WNW,292,1.4,1.4,82,0.00,CLR,OVC,0.72,WeatherDisplay:10.37,2013-06-02 06:31:00,
2013-06-02 16:36:00,55.2,49.8,29.35,SSE,158,2.0,0.0,82,0.00,CLR,OVC,0.72,WeatherDisplay:10.37,2013-06-02 06:36:00,
2013-06-02 16:41:00,54.9,49.5,29.35,WSW,248,0.0,0.0,82,0.00,CLR,OVC,0.72,WeatherDisplay:10.37,2013-06-02 06:41:00,
2013-06-02 16:46:00,54.9,49.5,29.38,SW,225,1.2,1.4,82,0.00,CLR,OVC,0.72,WeatherDisplay:10.37,2013-06-02 06:46:00,
2013-06-02 16:51:00,54.7,49.3,29.38,SW,225,1.2,0.0,82,0.00,CLR,OVC,0.72,WeatherDisplay:10.37,2013-06-02 06:51:00,
2013-06-02 16:56:00,54.7,49.3,29.38,SW,225,2.3,2.3,82,0.00,CLR,OVC,0.72,WeatherDisplay:10.37,2013-06-02 06:56:00,
2013-06-02 17:01:00,54.5,48.8,29.38,SSW,202,1.2,0.0,81,0.00,CLR,OVC,0.72,WeatherDisplay:10.37,2013-06-02 07:01:00,
2013-06-02 17:06:00,54.3,48.6,29.38,SSW,202,1.2,1.2,81,0.00,CLR,OVC,0.72,WeatherDisplay:10.37,2013-06-02 07:06:00,
2013-06-02 17:11:00,54.1,48.4,29.38,South,180,2.3,2.3,81,0.00,CLR,OVC,0.72,WeatherDisplay:10.37,2013-06-02 07:11:00,
2013-06-02 17:16:00,54.0,48.3,29.38,SW,225,4.6,4.6,81,0.00,CLR,OVC,0.72,WeatherDisplay:10.37,2013-06-02 07:16:00,
2013-06-02 17:21:00,54.0,48.3,29.38,SSW,202,1.2,1.2,81,0.00,CLR,OVC,0.72,WeatherDisplay:10.37,2013-06-02 07:21:00,
2013-06-02 17:26:00,53.8,47.8,29.38,SW,225,2.3,0.0,80,0.00,CLR,OVC,0.72,WeatherDisplay:10.37,2013-06-02 07:26:00,
2013-06-02 17:31:00,53.8,48.1,29.38,SSW,202,0.0,0.0,81,0.00,CLR,OVC,0.72,WeatherDisplay:10.37,2013-06-02 07:31:00,
2013-06-02 17:36:00,53.8,48.1,29.38,SW,225,0.0,0.0,81,0.00,CLR,OVC,0.72,WeatherDisplay:10.37,2013-06-02 07:36:00,
2013-06-02 17:41:00,53.8,48.1,29.38,SSW,202,0.0,0.0,81,0.00,CLR,OVC,0.72,WeatherDisplay:10.37,2013-06-02 07:41:00,
2013-06-02 17:46:00,53.8,48.1,29.38,South,180,0.0,0.0,81,0.00,CLR,OVC,0.72,WeatherDisplay:10.37,2013-06-02 07:46:00,
2013-06-02 17:51:00,53.8,48.4,29.38,SW,225,0.0,0.0,82,0.00,CLR,OVC,0.72,WeatherDisplay:10.37,2013-06-02 07:51:00,
2013-06-02 17:56:00,53.8,48.4,29.38,SW,225,0.0,0.0,82,0.00,CLR,OVC,0.72,WeatherDisplay:10.37,2013-06-02 07:56:00,
2013-06-02 18:01:00,53.6,47.9,29.38,WSW,248,0.0,0.0,81,0.00,CLR,OVC,0.72,WeatherDisplay:10.37,2013-06-02 08:01:00,
2013-06-02 18:06:00,53.4,48.1,29.38,SW,225,1.6,1.6,82,0.00,CLR,OVC,0.72,WeatherDisplay:10.37,2013-06-02 08:06:00,
2013-06-02 18:11:00,53.4,47.7,29.38,WSW,248,1.2,0.0,81,0.00,CLR,OVC,0.72,WeatherDisplay:10.37,2013-06-02 08:11:00,
2013-06-02 18:16:00,53.2,47.6,29.38,SSE,158,0.0,0.0,81,0.00,CLR,OVC,0.72,WeatherDisplay:10.37,2013-06-02 08:16:00,
2013-06-02 18:21:00,53.2,47.9,29.38,West,270,1.2,1.2,82,0.00,CLR,OVC,0.72,WeatherDisplay:10.37,2013-06-02 08:21:00,
2013-06-02 18:26:00,53.2,47.9,29.38,West,270,0.0,0.0,82,0.00,CLR,OVC,0.72,WeatherDisplay:10.37,2013-06-02 08:26:00,
2013-06-02 18:31:00,53.4,48.1,29.41,WSW,248,1.2,0.0,82,0.00,CLR,OVC,0.72,WeatherDisplay:10.37,2013-06-02 08:31:00,
2013-06-02 18:36:00,53.2,47.9,29.41,SW,225,2.3,0.0,82,0.00,CLR,OVC,0.72,WeatherDisplay:10.37,2013-06-02 08:36:00,
2013-06-02 18:41:00,53.4,48.1,29.41,WNW,292,1.2,0.0,82,0.00,CLR,OVC,0.72,WeatherDisplay:10.37,2013-06-02 08:41:00,
2013-06-02 18:46:00,53.4,48.1,29.38,SSW,202,2.3,2.3,82,0.00,CLR,OVC,0.72,WeatherDisplay:10.37,2013-06-02 08:46:00,
2013-06-02 18:51:00,53.4,48.1,29.38,SSE,158,2.3,2.3,82,0.00,CLR,OVC,0.72,WeatherDisplay:10.37,2013-06-02 08:51:00,
2013-06-02 18:56:00,53.2,47.9,29.38,West,270,2.6,2.6,82,0.00,CLR,OVC,0.72,WeatherDisplay:10.37,2013-06-02 08:56:00,
2013-06-02 19:01:00,53.4,48.1,29.44,NNW,338,0.0,0.0,82,0.00,CLR,OVC,0.72,WeatherDisplay:10.37,2013-06-02 09:01:00,
2013-06-02 19:06:00,53.4,48.1,29.44,West,270,2.4,2.4,82,0.00,CLR,OVC,0.72,WeatherDisplay:10.37,2013-06-02 09:06:00,
2013-06-02 19:11:00,53.6,48.2,29.44,WNW,292,1.2,0.0,82,0.00,CLR,OVC,0.72,WeatherDisplay:10.37,2013-06-02 09:11:00,
2013-06-02 19:16:00,53.6,48.2,29.44,WSW,248,1.2,0.0,82,0.00,CLR,OVC,0.72,WeatherDisplay:10.37,2013-06-02 09:16:00,
2013-06-02 19:22:00,53.6,48.2,29.44,WSW,248,1.2,0.0,82,0.00,CLR,OVC,0.72,WeatherDisplay:10.37,2013-06-02 09:22:00,
2013-06-02 19:26:00,53.8,48.4,29.44,South,180,2.3,0.0,82,0.00,CLR,OVC,0.72,WeatherDisplay:10.37,2013-06-02 09:26:00,
2013-06-02 19:32:00,53.8,48.4,29.44,West,270,2.0,0.0,82,0.00,CLR,OVC,0.72,WeatherDisplay:10.37,2013-06-02 09:32:00,
2013-06-02 19:36:00,54.0,48.9,29.44,SSW,202,1.2,0.0,83,0.00,CLR,OVC,0.72,WeatherDisplay:10.37,2013-06-02 09:36:00,
2013-06-02 19:41:00,54.0,48.9,29.44,South,180,1.2,1.2,83,0.00,CLR,OVC,0.72,WeatherDisplay:10.37,2013-06-02 09:41:00,
2013-06-02 19:46:00,54.0,48.9,29.44,SW,225,3.5,3.5,83,0.00,CLR,OVC,0.72,WeatherDisplay:10.37,2013-06-02 09:46:00,
2013-06-02 19:51:00,54.1,48.8,29.44,WSW,248,2.3,2.3,82,0.00,CLR,OVC,0.72,WeatherDisplay:10.37,2013-06-02 09:51:00,
2013-06-02 19:56:00,54.1,48.8,29.44,West,270,2.3,2.3,82,0.00,CLR,OVC,0.72,WeatherDisplay:10.37,2013-06-02 09:56:00,
2013-06-02 20:01:00,54.3,48.9,29.44,West,270,2.4,2.4,82,0.00,CLR,OVC,0.72,WeatherDisplay:10.37,2013-06-02 10:01:00,
2013-06-02 20:06:00,54.3,48.9,29.44,WSW,248,2.3,2.3,82,0.00,CLR,OVC,0.72,WeatherDisplay:10.37,2013-06-02 10:06:00,
2013-06-02 20:11:00,54.5,49.1,29.44,WSW,248,2.3,3.1,82,0.00,CLR,OVC,0.72,WeatherDisplay:10.37,2013-06-02 10:11:00,
2013-06-02 20:16:00,54.7,49.3,29.44,South,180,2.3,2.3,82,0.00,CLR,OVC,0.72,WeatherDisplay:10.37,2013-06-02 10:16:00,
2013-06-02 20:21:00,54.9,49.5,29.44,SSW,202,2.3,2.3,82,0.00,CLR,OVC,0.72,WeatherDisplay:10.37,2013-06-02 10:21:00,
2013-06-02 20:26:00,54.9,49.5,29.44,South,180,1.2,1.2,82,0.00,CLR,OVC,0.72,WeatherDisplay:10.37,2013-06-02 10:26:00,
2013-06-02 20:31:00,55.0,49.6,29.44,WSW,248,2.3,2.3,82,0.00,CLR,OVC,0.72,WeatherDisplay:10.37,2013-06-02 10:31:00,
2013-06-02 20:36:00,55.0,49.6,29.44,WSW,248,1.4,1.4,82,0.00,CLR,OVC,0.72,WeatherDisplay:10.37,2013-06-02 10:36:00,
2013-06-02 20:41:00,54.9,49.1,29.44,SSW,202,2.3,2.3,81,0.00,CLR,OVC,0.72,WeatherDisplay:10.37,2013-06-02 10:41:00,
2013-06-02 20:46:00,54.9,48.8,29.44,West,270,2.3,2.3,80,0.00,CLR,OVC,0.72,WeatherDisplay:10.37,2013-06-02 10:46:00,
2013-06-02 20:51:00,54.7,48.6,29.44,West,270,1.2,0.0,80,0.00,CLR,OVC,0.72,WeatherDisplay:10.37,2013-06-02 10:51:00,
2013-06-02 20:57:00,54.5,48.1,29.44,West,270,0.0,0.0,79,0.00,CLR,OVC,0.72,WeatherDisplay:10.37,2013-06-02 10:57:00,
2013-06-02 21:01:00,54.5,48.1,29.44,SSW,202,1.2,0.0,79,0.00,CLR,OVC,0.72,WeatherDisplay:10.37,2013-06-02 11:01:00,
2013-06-02 21:07:00,54.5,48.5,29.44,SW,225,1.2,0.0,80,0.00,CLR,OVC,0.72,WeatherDisplay:10.37,2013-06-02 11:07:00,
2013-06-02 21:12:00,54.5,48.5,29.44,SW,225,0.0,1.2,80,0.00,CLR,OVC,0.72,WeatherDisplay:10.37,2013-06-02 11:12:00,
2013-06-02 21:17:00,54.5,48.5,29.44,SW,225,0.0,0.0,80,0.00,CLR,OVC,0.72,WeatherDisplay:10.37,2013-06-02 11:17:00,
2013-06-02 21:22:00,54.5,48.5,29.44,WNW,292,1.4,0.0,80,0.00,CLR,OVC,0.72,WeatherDisplay:10.37,2013-06-02 11:22:00,
2013-06-02 21:27:00,54.3,48.3,29.44,SW,225,1.2,1.2,80,0.00,CLR,OVC,0.72,WeatherDisplay:10.37,2013-06-02 11:27:00,
2013-06-02 21:32:00,54.3,48.3,29.44,SSW,202,2.3,2.3,80,0.00,CLR,OVC,0.72,WeatherDisplay:10.37,2013-06-02 11:32:00,
2013-06-02 21:37:00,54.3,47.9,29.44,SW,225,1.2,0.0,79,0.00,CLR,OVC,0.72,WeatherDisplay:10.37,2013-06-02 11:37:00,
2013-06-02 21:42:00,54.1,47.8,29.44,SW,225,1.2,0.0,79,0.00,CLR,OVC,0.72,WeatherDisplay:10.37,2013-06-02 11:42:00,
2013-06-02 21:47:00,54.0,47.6,29.47,SW,225,0.0,0.0,79,0.00,CLR,OVC,0.72,WeatherDisplay:10.37,2013-06-02 11:47:00,
2013-06-02 21:52:00,54.0,47.6,29.47,SSW,202,0.0,0.0,79,0.00,CLR,OVC,0.72,WeatherDisplay:10.37,2013-06-02 11:52:00,
2013-06-02 21:57:00,54.0,47.6,29.47,SSW,202,0.0,0.0,79,0.00,CLR,OVC,0.72,WeatherDisplay:10.37,2013-06-02 11:57:00,
2013-06-02 22:02:00,54.0,47.6,29.47,SW,225,2.3,2.3,79,0.00,CLR,OVC,0.72,WeatherDisplay:10.37,2013-06-02 12:02:00,
2013-06-02 22:07:00,54.0,47.6,29.47,SSW,202,2.3,2.3,79,0.00,CLR,OVC,0.72,WeatherDisplay:10.37,2013-06-02 12:07:00,
2013-06-02 22:12:00,54.0,47.6,29.47,West,270,3.5,3.5,79,0.00,CLR,OVC,0.72,WeatherDisplay:10.37,2013-06-02 12:12:00,
2013-06-02 22:17:00,54.0,47.6,29.47,South,180,2.3,2.3,79,0.00,CLR,OVC,0.72,WeatherDisplay:10.37,2013-06-02 12:17:00,
2013-06-02 22:22:00,54.0,47.9,29.47,WNW,292,2.6,2.6,80,0.00,CLR,OVC,0.72,WeatherDisplay:10.37,2013-06-02 12:22:00,
2013-06-02 22:27:00,54.0,47.6,29.47,West,270,2.9,0.0,79,0.00,CLR,OVC,0.72,WeatherDisplay:10.37,2013-06-02 12:27:00,
2013-06-02 22:32:00,54.0,47.6,29.47,WSW,248,2.3,0.0,79,0.00,CLR,OVC,0.72,WeatherDisplay:10.37,2013-06-02 12:32:00,
2013-06-02 22:37:00,54.0,47.6,29.47,SSW,202,1.2,0.0,79,0.00,CLR,OVC,0.72,WeatherDisplay:10.37,2013-06-02 12:37:00,
2013-06-02 22:42:00,53.8,47.4,29.47,SSW,202,1.2,1.2,79,0.00,CLR,OVC,0.72,WeatherDisplay:10.37,2013-06-02 12:42:00,
2013-06-02 22:47:00,53.8,47.1,29.47,WNW,292,1.2,0.0,78,0.00,CLR,OVC,0.72,WeatherDisplay:10.37,2013-06-02 12:47:00,
2013-06-02 22:52:00,53.6,46.9,29.47,SSW,202,2.3,0.0,78,0.00,CLR,OVC,0.72,WeatherDisplay:10.37,2013-06-02 12:52:00,
2013-06-02 22:57:00,53.2,46.6,29.47,West,270,3.1,3.1,78,0.00,CLR,OVC,0.72,WeatherDisplay:10.37,2013-06-02 12:57:00,
2013-06-02 23:02:00,53.2,46.6,29.47,SSW,202,1.2,1.2,78,0.00,CLR,OVC,0.72,WeatherDisplay:10.37,2013-06-02 13:02:00,
2013-06-02 23:07:00,53.1,46.4,29.47,SSW,202,2.3,2.3,78,0.00,CLR,OVC,0.72,WeatherDisplay:10.37,2013-06-02 13:07:00,
2013-06-02 23:12:00,53.1,46.4,29.47,SSW,202,2.3,2.3,78,0.00,CLR,OVC,0.72,WeatherDisplay:10.37,2013-06-02 13:12:00,
2013-06-02 23:17:00,52.9,46.2,29.50,West,270,2.0,0.0,78,0.00,CLR,OVC,0.72,WeatherDisplay:10.37,2013-06-02 13:17:00,
2013-06-02 23:22:00,52.9,46.2,29.50,WSW,248,2.0,0.0,78,0.00,CLR,OVC,0.72,WeatherDisplay:10.37,2013-06-02 13:22:00,
2013-06-02 23:27:00,52.7,46.0,29.50,SW,225,2.3,2.3,78,0.00,CLR,OVC,0.72,WeatherDisplay:10.37,2013-06-02 13:27:00,
2013-06-02 23:32:00,52.7,45.7,29.47,SW,225,2.3,2.3,77,0.00,CLR,OVC,0.72,WeatherDisplay:10.37,2013-06-02 13:32:00,
2013-06-02 23:37:00,52.5,45.5,29.47,SSW,202,2.3,2.3,77,0.00,CLR,OVC,0.72,WeatherDisplay:10.37,2013-06-02 13:37:00,
2013-06-02 23:42:00,52.3,45.7,29.47,WNW,292,2.9,2.9,78,0.00,CLR,OVC,0.72,WeatherDisplay:10.37,2013-06-02 13:42:00,
2013-06-02 23:47:00,52.3,45.7,29.50,SW,225,2.3,2.3,78,0.00,CLR,OVC,0.72,WeatherDisplay:10.37,2013-06-02 13:47:00,
2013-06-02 23:52:00,52.2,45.2,29.50,South,180,3.5,3.5,77,0.00,CLR,OVC,0.72,WeatherDisplay:10.37,2013-06-02 13:52:00,
2013-06-02 23:57:00,52.2,45.5,29.50,SW,225,1.4,1.4,78,0.00,CLR,OVC,0.72,WeatherDisplay:10.37,2013-06-02 13:57:00,